Airfield :
LOGIN :

Register | Disclaimer

   EN    FR    IT 

 










Legend :    VFR   Marginal VFR   IFR   Intensive IFR   Very Intensive IFR
Visi :
Ceiling :
>= 8 km
>= 3000ft
5 to 8 km
1000 to 3000 ft
1500m to 5 km
500 to 1000 ft
800 to 1500m
200 to 500 ft
< 800m
< 200 ft
Symbols :   Thunderstorms  Fog  Heavy snow  Heavy precipitations  Wind > 20 kt
SIGMETs :     Misc.  Thunderstorms  Icing  Turbulence  Mountain Waves  Volcanic Ashes






- Airport Elevation : 1860 ft
- IATA code : GRX


LEGR - Granada

CURRENT METAR :
  • 052030Z VRB01KT CAVOK 07/M01 Q1027

EXPIRED METARs :
  • 052000Z 21003KT 160V240 CAVOK 09/M01 Q1027
  • 051930Z 23002KT CAVOK 10/M01 Q1027
  • 051900Z 00000KT CAVOK 12/M01 Q1027
  • 051830Z VRB01KT CAVOK 13/M02 Q1027
  • 051800Z 19006KT 140V230 CAVOK 15/M02 Q1027

TAF TAF LEGR
Valid from the 05 at 18:00 until the 06 at 18:00 UTC


051700Z 0518/0618 VRB02KT CAVOK TX18/0615Z TNM02/0607Z
PROB40
TEMPO 0518/0519 19010KT



MET'MAP, your aeronautical weather chart ! - Copyright ORBIFLY December 2007 - Disclaimer

ORBIFLY MET'MAP TEAM :

Programming & Development : Alexandra Zaïnal
Original concept : Baudouin d'Aumeries
Technical & hardware support : Manuel Goepfert
Assistance : Marc-Olivier Méhu




SOURCES & CREDITS :

   NOAA